Mount Hermon, KY (42157)

4:38 PM CDT on October 23, 2014 (GMT -0500)
Scout Reservation | Change Station
CLOSE
Current Station
Personal Weather Station
Location: Temple Hill, KY
Elevation: 780 ft
Nearby Weather Stations

Elev 780 ft 36.90 °N, 85.88 °W | Updated 45 minutes ago

Clear
Clear
61.8 °F
Feels Like 61.8 °F
N
0.0
Wind Variable Wind from SSW
Gusts 0.0 mph

Today
High -- | Low -- °F
--% Chance of Precip.
Yesterday
High -- | Low -- °F
Precip. -- in
6:58 AM 5:56 PM
Waning Crescent, 0% visible
Pressure 30.12 in
Visibility 10.0 miles
Clouds Clear
Dew Point 48 °F
Humidity 60%
Rainfall 0.00 in
Snow Depth Not available.
UV 1 out of 12
Pollen 1.10 out of 12
Air Quality Not available.
Flu Activity Sporadic
METAR KGLW 232115Z AUTO 00000KT 10SM CLR 15/06 A3012 RMK AO2 T01510056

More Conditions Fewer Conditions

Pressure 30.12 in
Visibility 10.0 miles
Clouds Clear
Dew Point 48 °F
Humidity 60%
Rainfall 0.00 in
Snow Depth Not available.
UV 1 out of 12
Pollen 1.10 out of 12
Air Quality Not available.
Flu Activity Sporadic
METAR KGLW 232115Z AUTO 00000KT 10SM CLR 15/06 A3012 RMK AO2 T01510056

More Conditions Fewer Conditions

10-Day Weather Forecast

Almanac

Astronomy

Oct. 23, 2014 Rise Set
Actual Time 6:58 AM CDT 5:56 PM CDT
Civil Twilight 6:31 AM CDT 6:22 PM CDT
Nautical Twilight 6:01 AM CDT 6:53 PM CDT
Astronomical Twilight 5:31 AM CDT 7:23 PM CDT
Moon 6:37 AM CDT 5:57 PM CDT
Length of Visible Light 11h 50m
Length of Day
10h 58m
Tomorrow will be 2m 10s shorter.
Waning Crescent, 0% of the Moon is Illuminated
Today
Waning Crescent
Oct 23
New
Oct 30
First Quarter
Nov 6
Full
Nov 14
Last Quarter

Today's Extremes

State Highs State Lows

Community

WunderPhotos

Upload Photos

1,764,379 photos uploaded!

WunderBlogs® & News

Nearby

Snow Depth

Station Depth Elevation
No new snow has been reported.

Earthquake Activity

City Distance Mag. Time & Date
No recent earthquake activity has been reported nearby.
Minimum magnitude displayed is 2.5.

Coastal Water Temperatures

Place Temperature
No Stations Reporting

Nearby Weather Stations